sensor_id;sensor_type;location;lat;lon;timestamp;pressure;altitude;pressure_sealevel;temperature;humidity
46347;BME280;32057;47.830;19.046;2022-10-16T00:00:32;100655.56;;;13.83;96.55
46347;BME280;32057;47.830;19.046;2022-10-16T00:02:58;100658.19;;;13.83;95.53
46347;BME280;32057;47.830;19.046;2022-10-16T00:05:23;100665.25;;;13.88;96.67
46347;BME280;32057;47.830;19.046;2022-10-16T00:07:49;100672.19;;;13.88;95.80
46347;BME280;32057;47.830;19.046;2022-10-16T00:10:14;100674.84;;;13.91;94.52
46347;BME280;32057;47.830;19.046;2022-10-16T00:12:40;100672.22;;;13.89;95.62
46347;BME280;32057;47.830;19.046;2022-10-16T00:15:06;100673.13;;;13.90;93.95
46347;BME280;32057;47.830;19.046;2022-10-16T00:17:31;100677.47;;;13.91;95.15
46347;BME280;32057;47.830;19.046;2022-10-16T00:19:57;100679.19;;;13.89;95.18
46347;BME280;32057;47.830;19.046;2022-10-16T00:22:23;100678.34;;;13.90;95.23
46347;BME280;32057;47.830;19.046;2022-10-16T00:24:49;100680.03;;;13.88;95.83
46347;BME280;32057;47.830;19.046;2022-10-16T00:27:14;100683.56;;;13.88;94.59
46347;BME280;32057;47.830;19.046;2022-10-16T00:29:40;100680.91;;;13.87;94.90
46347;BME280;32057;47.830;19.046;2022-10-16T00:32:05;100680.03;;;13.86;94.40
46347;BME280;32057;47.830;19.046;2022-10-16T00:34:31;100677.44;;;13.89;93.51
46347;BME280;32057;47.830;19.046;2022-10-16T00:36:56;100680.09;;;13.91;93.05
46347;BME280;32057;47.830;19.046;2022-10-16T00:39:21;100678.34;;;13.90;92.74
46347;BME280;32057;47.830;19.046;2022-10-16T00:41:47;100685.28;;;13.89;92.94
46347;BME280;32057;47.830;19.046;2022-10-16T00:44:48;100683.53;;;13.87;93.64
46347;BME280;32057;47.830;19.046;2022-10-16T00:47:29;100681.75;;;13.86;92.47
46347;BME280;32057;47.830;19.046;2022-10-16T00:50:00;100687.03;;;13.89;93.06
46347;BME280;32057;47.830;19.046;2022-10-16T00:52:27;100693.94;;;13.84;93.73
46347;BME280;32057;47.830;19.046;2022-10-16T00:54:54;100700.06;;;13.84;92.81
46347;BME280;32057;47.830;19.046;2022-10-16T00:57:19;100708.72;;;13.82;92.47
46347;BME280;32057;47.830;19.046;2022-10-16T00:59:45;100707.91;;;13.84;92.73
46347;BME280;32057;47.830;19.046;2022-10-16T01:02:14;100700.00;;;13.81;92.36
46347;BME280;32057;47.830;19.046;2022-10-16T01:04:48;100700.00;;;13.81;93.54
46347;BME280;32057;47.830;19.046;2022-10-16T01:15:27;100695.56;;;13.75;91.59
46347;BME280;32057;47.830;19.046;2022-10-16T01:17:57;100698.19;;;13.75;92.00
46347;BME280;32057;47.830;19.046;2022-10-16T01:20:29;100705.13;;;13.73;91.21
46347;BME280;32057;47.830;19.046;2022-10-16T01:23:10;100707.75;;;13.73;91.57
46347;BME280;32057;47.830;19.046;2022-10-16T01:28:09;100707.69;;;13.69;91.60
46347;BME280;32057;47.830;19.046;2022-10-16T01:30:40;100705.94;;;13.68;90.60
46347;BME280;32057;47.830;19.046;2022-10-16T01:33:23;100707.59;;;13.61;92.35
46347;BME280;32057;47.830;19.046;2022-10-16T01:35:56;100709.22;;;13.53;92.84
46347;BME280;32057;47.830;19.046;2022-10-16T01:38:38;100715.34;;;13.55;91.83
46347;BME280;32057;47.830;19.046;2022-10-16T01:41:11;100718.84;;;13.54;91.75
46347;BME280;32057;47.830;19.046;2022-10-16T01:44:03;100723.16;;;13.52;92.16
46347;BME280;32057;47.830;19.046;2022-10-16T01:46:28;100726.63;;;13.51;92.61
46347;BME280;32057;47.830;19.046;2022-10-16T01:48:56;100723.97;;;13.49;91.82
46347;BME280;32057;47.830;19.046;2022-10-16T01:51:23;100733.59;;;13.50;92.18
46347;BME280;32057;47.830;19.046;2022-10-16T01:53:53;100733.59;;;13.50;91.47
46347;BME280;32057;47.830;19.046;2022-10-16T01:56:20;100731.84;;;13.51;92.17
46347;BME280;32057;47.830;19.046;2022-10-16T01:59:07;100743.19;;;13.51;91.92
46347;BME280;32057;47.830;19.046;2022-10-16T02:01:36;100737.91;;;13.50;91.42
46347;BME280;32057;47.830;19.046;2022-10-16T02:04:09;100743.97;;;13.46;92.85
46347;BME280;32057;47.830;19.046;2022-10-16T02:06:38;100741.34;;;13.44;91.15
46347;BME280;32057;47.830;19.046;2022-10-16T02:09:03;100742.25;;;13.46;92.31
46347;BME280;32057;47.830;19.046;2022-10-16T02:11:29;100744.84;;;13.45;93.06
46347;BME280;32057;47.830;19.046;2022-10-16T02:14:05;100747.38;;;13.42;92.33
46347;BME280;32057;47.830;19.046;2022-10-16T02:16:43;100751.81;;;13.44;92.02
46347;BME280;32057;47.830;19.046;2022-10-16T02:19:09;100752.63;;;13.42;92.95
46347;BME280;32057;47.830;19.046;2022-10-16T02:21:54;100748.25;;;13.41;91.99
46347;BME280;32057;47.830;19.046;2022-10-16T02:24:27;100752.69;;;13.45;91.72
46347;BME280;32057;47.830;19.046;2022-10-16T02:29:25;100750.88;;;13.41;92.68
46347;BME280;32057;47.830;19.046;2022-10-16T02:31:56;100741.25;;;13.38;92.03
46347;BME280;32057;47.830;19.046;2022-10-16T02:34:24;100736.81;;;13.32;92.22
46347;BME280;32057;47.830;19.046;2022-10-16T02:36:52;100741.91;;;13.26;90.58
46347;BME280;32057;47.830;19.046;2022-10-16T02:39:19;100746.16;;;13.21;91.36
46347;BME280;32057;47.830;19.046;2022-10-16T02:41:45;100747.84;;;13.18;91.82
46347;BME280;32057;47.830;19.046;2022-10-16T02:44:10;100745.16;;;13.13;91.23
46347;BME280;32057;47.830;19.046;2022-10-16T02:46:36;100741.44;;;12.99;91.98
46347;BME280;32057;47.830;19.046;2022-10-16T02:49:02;100746.72;;;13.02;90.94
46347;BME280;32057;47.830;19.046;2022-10-16T02:51:27;100746.69;;;12.99;91.06
46347;BME280;32057;47.830;19.046;2022-10-16T02:53:53;100764.00;;;12.93;91.61
46347;BME280;32057;47.830;19.046;2022-10-16T02:56:18;100754.22;;;12.83;92.24
46347;BME280;32057;47.830;19.046;2022-10-16T02:58:44;100761.19;;;12.83;92.83
46347;BME280;32057;47.830;19.046;2022-10-16T03:01:09;100762.81;;;12.76;92.40
46347;BME280;32057;47.830;19.046;2022-10-16T03:03:34;100765.44;;;12.76;92.59
46347;BME280;32057;47.830;19.046;2022-10-16T03:06:00;100778.34;;;12.68;93.16
46347;BME280;32057;47.830;19.046;2022-10-16T03:08:25;100768.59;;;12.58;93.16
46347;BME280;32057;47.830;19.046;2022-10-16T03:10:51;100767.63;;;12.54;93.99
46347;BME280;32057;47.830;19.046;2022-10-16T03:13:17;100764.91;;;12.48;94.36
46347;BME280;32057;47.830;19.046;2022-10-16T03:15:45;100762.19;;;12.42;94.41
46347;BME280;32057;47.830;19.046;2022-10-16T03:18:10;100768.13;;;12.35;94.61
46347;BME280;32057;47.830;19.046;2022-10-16T03:20:36;100770.66;;;12.32;94.58
46347;BME280;32057;47.830;19.046;2022-10-16T03:23:01;100780.97;;;12.24;94.59
46347;BME280;32057;47.830;19.046;2022-10-16T03:25:27;100777.41;;;12.21;94.70
46347;BME280;32057;47.830;19.046;2022-10-16T03:27:53;100779.13;;;12.20;94.47
46347;BME280;32057;47.830;19.046;2022-10-16T03:30:18;100768.41;;;12.08;94.27
46347;BME280;32057;47.830;19.046;2022-10-16T03:32:44;100784.84;;;12.04;94.69
46347;BME280;32057;47.830;19.046;2022-10-16T03:35:10;100791.84;;;12.05;95.63
46347;BME280;32057;47.830;19.046;2022-10-16T03:37:36;100788.50;;;12.10;96.89
46347;BME280;32057;47.830;19.046;2022-10-16T03:40:03;100791.88;;;12.06;97.04
46347;BME280;32057;47.830;19.046;2022-10-16T03:42:28;100795.44;;;12.11;97.76
46347;BME280;32057;47.830;19.046;2022-10-16T03:44:54;100802.28;;;12.05;96.68
46347;BME280;32057;47.830;19.046;2022-10-16T03:47:19;100795.13;;;11.96;96.79
46347;BME280;32057;47.830;19.046;2022-10-16T03:49:48;100800.16;;;11.88;96.48
46347;BME280;32057;47.830;19.046;2022-10-16T03:52:13;100794.53;;;11.71;96.22
46347;BME280;32057;47.830;19.046;2022-10-16T03:54:39;100800.47;;;11.66;96.41
46347;BME280;32057;47.830;19.046;2022-10-16T03:57:04;100799.50;;;11.61;97.95
46347;BME280;32057;47.830;19.046;2022-10-16T03:59:30;100808.88;;;11.54;98.30
46347;BME280;32057;47.830;19.046;2022-10-16T04:01:56;100807.97;;;11.52;99.66
46347;BME280;32057;47.830;19.046;2022-10-16T04:04:21;100804.38;;;11.47;100.00
46347;BME280;32057;47.830;19.046;2022-10-16T04:06:46;100808.88;;;11.52;99.95
46347;BME280;32057;47.830;19.046;2022-10-16T04:09:12;100815.78;;;11.52;99.86
46347;BME280;32057;47.830;19.046;2022-10-16T04:11:37;100817.38;;;11.45;100.00
46347;BME280;32057;47.830;19.046;2022-10-16T04:14:04;100826.00;;;11.43;100.00
46347;BME280;32057;47.830;19.046;2022-10-16T04:16:29;100831.09;;;11.38;100.00
46347;BME280;32057;47.830;19.046;2022-10-16T04:18:54;100837.81;;;11.30;99.19
46347;BME280;32057;47.830;19.046;2022-10-16T04:21:20;100835.69;;;11.13;96.98
46347;BME280;32057;47.830;19.046;2022-10-16T04:23:45;100830.91;;;10.97;97.37
46347;BME280;32057;47.830;19.046;2022-10-16T04:26:11;100829.69;;;10.84;99.29
46347;BME280;32057;47.830;19.046;2022-10-16T04:28:36;100839.16;;;10.82;100.00
46347;BME280;32057;47.830;19.046;2022-10-16T04:31:05;100849.50;;;10.79;100.00
46347;BME280;32057;47.830;19.046;2022-10-16T04:33:31;100851.25;;;10.80;100.00
46347;BME280;32057;47.830;19.046;2022-10-16T04:35:58;100846.56;;;10.67;100.00
46347;BME280;32057;47.830;19.046;2022-10-16T04:38:24;100850.00;;;10.66;100.00
46347;BME280;32057;47.830;19.046;2022-10-16T04:40:50;100848.28;;;10.36;97.71
46347;BME280;32057;47.830;19.046;2022-10-16T04:43:16;100842.91;;;10.30;99.31
46347;BME280;32057;47.830;19.046;2022-10-16T04:45:41;100851.34;;;10.23;97.92
46347;BME280;32057;47.830;19.046;2022-10-16T04:48:06;100847.22;;;10.02;97.97
46347;BME280;32057;47.830;19.046;2022-10-16T04:50:32;100842.56;;;9.92;100.00
46347;BME280;32057;47.830;19.046;2022-10-16T04:52:57;100855.56;;;9.92;100.00
46347;BME280;32057;47.830;19.046;2022-10-16T04:55:22;100855.00;;;9.73;99.17
46347;BME280;32057;47.830;19.046;2022-10-16T04:57:48;100850.34;;;9.63;100.00
46347;BME280;32057;47.830;19.046;2022-10-16T05:00:13;100855.34;;;9.57;100.00
46347;BME280;32057;47.830;19.046;2022-10-16T05:02:39;100862.19;;;9.55;100.00
46347;BME280;32057;47.830;19.046;2022-10-16T05:05:04;100854.59;;;9.61;100.00
46347;BME280;32057;47.830;19.046;2022-10-16T05:07:30;100856.47;;;9.65;100.00
46347;BME280;32057;47.830;19.046;2022-10-16T05:09:56;100871.88;;;9.59;100.00
46347;BME280;32057;47.830;19.046;2022-10-16T05:12:21;100868.13;;;9.51;100.00
46347;BME280;32057;47.830;19.046;2022-10-16T05:14:46;100858.28;;;9.41;99.16
46347;BME280;32057;47.830;19.046;2022-10-16T05:17:12;100860.63;;;9.34;100.00
46347;BME280;32057;47.830;19.046;2022-10-16T05:19:37;100868.44;;;9.34;100.00
46347;BME280;32057;47.830;19.046;2022-10-16T05:22:03;100878.72;;;9.31;100.00
46347;BME280;32057;47.830;19.046;2022-10-16T05:24:28;100881.31;;;9.31;100.00
46347;BME280;32057;47.830;19.046;2022-10-16T05:26:54;100879.00;;;9.39;100.00
46347;BME280;32057;47.830;19.046;2022-10-16T05:29:19;100879.81;;;9.38;100.00
46347;BME280;32057;47.830;19.046;2022-10-16T05:31:45;100885.19;;;9.43;100.00
46347;BME280;32057;47.830;19.046;2022-10-16T05:34:10;100891.13;;;9.40;100.00
46347;BME280;32057;47.830;19.046;2022-10-16T05:36:36;100891.03;;;9.37;100.00
46347;BME280;32057;47.830;19.046;2022-10-16T05:39:01;100871.59;;;9.26;100.00
46347;BME280;32057;47.830;19.046;2022-10-16T05:41:27;100888.31;;;9.34;100.00
46347;BME280;32057;47.830;19.046;2022-10-16T05:43:53;100889.13;;;9.31;100.00
46347;BME280;32057;47.830;19.046;2022-10-16T05:46:18;100896.38;;;9.42;100.00
46347;BME280;32057;47.830;19.046;2022-10-16T05:48:44;100887.81;;;9.44;100.00
46347;BME280;32057;47.830;19.046;2022-10-16T05:51:12;100893.06;;;9.46;100.00
46347;BME280;32057;47.830;19.046;2022-10-16T05:53:38;100890.81;;;9.56;100.00
46347;BME280;32057;47.830;19.046;2022-10-16T05:56:05;100899.91;;;9.69;100.00
46347;BME280;32057;47.830;19.046;2022-10-16T05:58:33;100900.22;;;9.79;100.00
46347;BME280;32057;47.830;19.046;2022-10-16T06:01:06;100911.03;;;9.91;100.00
46347;BME280;32057;47.830;19.046;2022-10-16T06:03:32;100902.38;;;9.92;100.00
46347;BME280;32057;47.830;19.046;2022-10-16T06:05:58;100908.63;;;9.97;100.00
46347;BME280;32057;47.830;19.046;2022-10-16T06:08:24;100910.56;;;10.04;100.00
46347;BME280;32057;47.830;19.046;2022-10-16T06:11:03;100909.72;;;10.05;100.00
46347;BME280;32057;47.830;19.046;2022-10-16T06:13:29;100909.94;;;10.11;100.00
46347;BME280;32057;47.830;19.046;2022-10-16T06:15:58;100905.03;;;10.22;100.00
46347;BME280;32057;47.830;19.046;2022-10-16T06:18:24;100915.88;;;10.34;100.00
46347;BME280;32057;47.830;19.046;2022-10-16T06:20:50;100914.41;;;10.44;100.00
46347;BME280;32057;47.830;19.046;2022-10-16T06:23:16;100928.81;;;10.62;100.00
46347;BME280;32057;47.830;19.046;2022-10-16T06:25:41;100929.28;;;10.77;100.00
46347;BME280;32057;47.830;19.046;2022-10-16T06:28:06;100919.13;;;10.86;100.00
46347;BME280;32057;47.830;19.046;2022-10-16T06:30:32;100941.25;;;11.01;100.00
46347;BME280;32057;47.830;19.046;2022-10-16T06:33:00;100929.97;;;11.02;100.00
46347;BME280;32057;47.830;19.046;2022-10-16T06:35:26;100937.25;;;11.13;100.00
46347;BME280;32057;47.830;19.046;2022-10-16T06:37:53;100950.53;;;11.23;100.00
46347;BME280;32057;47.830;19.046;2022-10-16T06:40:18;100957.72;;;11.31;100.00
46347;BME280;32057;47.830;19.046;2022-10-16T06:42:44;100949.25;;;11.39;100.00
46347;BME280;32057;47.830;19.046;2022-10-16T06:45:10;100954.66;;;11.46;100.00
46347;BME280;32057;47.830;19.046;2022-10-16T06:47:36;100954.00;;;11.55;100.00
46347;BME280;32057;47.830;19.046;2022-10-16T06:50:01;100957.91;;;11.71;100.00
46347;BME280;32057;47.830;19.046;2022-10-16T06:52:38;100964.16;;;11.77;100.00
46347;BME280;32057;47.830;19.046;2022-10-16T06:55:06;100978.25;;;11.86;100.00
46347;BME280;32057;47.830;19.046;2022-10-16T06:57:35;100977.78;;;11.99;100.00
46347;BME280;32057;47.830;19.046;2022-10-16T07:00:22;100987.97;;;12.25;100.00
46347;BME280;32057;47.830;19.046;2022-10-16T07:02:59;100981.44;;;12.42;100.00
46347;BME280;32057;47.830;19.046;2022-10-16T07:05:28;100988.84;;;12.63;100.00
46347;BME280;32057;47.830;19.046;2022-10-16T07:08:41;100994.81;;;12.97;100.00
46347;BME280;32057;47.830;19.046;2022-10-16T07:11:40;101002.28;;;13.21;97.71
46347;BME280;32057;47.830;19.046;2022-10-16T07:14:29;101007.78;;;13.32;96.90
46347;BME280;32057;47.830;19.046;2022-10-16T07:17:02;101004.53;;;13.45;89.97
46347;BME280;32057;47.830;19.046;2022-10-16T07:19:36;101011.66;;;13.52;89.53
46347;BME280;32057;47.830;19.046;2022-10-16T07:22:02;101007.47;;;13.62;93.73
46347;BME280;32057;47.830;19.046;2022-10-16T07:24:34;101007.63;;;13.71;91.31
46347;BME280;32057;47.830;19.046;2022-10-16T07:27:09;101007.81;;;13.81;88.77
46347;BME280;32057;47.830;19.046;2022-10-16T07:29:37;101009.66;;;13.88;89.15
46347;BME280;32057;47.830;19.046;2022-10-16T07:32:10;101011.50;;;13.93;90.66
46347;BME280;32057;47.830;19.046;2022-10-16T07:34:56;101013.41;;;14.04;81.96
46347;BME280;32057;47.830;19.046;2022-10-16T07:37:29;101011.81;;;14.10;87.46
46347;BME280;32057;47.830;19.046;2022-10-16T07:39:57;101018.03;;;14.17;87.38
46347;BME280;32057;47.830;19.046;2022-10-16T07:42:23;101019.94;;;14.26;85.88
46347;BME280;32057;47.830;19.046;2022-10-16T07:44:48;101013.81;;;14.27;84.83
46347;BME280;32057;47.830;19.046;2022-10-16T07:47:14;101020.03;;;14.33;85.92
46347;BME280;32057;47.830;19.046;2022-10-16T07:49:39;101021.03;;;14.40;86.02
46347;BME280;32057;47.830;19.046;2022-10-16T07:52:04;101014.09;;;14.45;86.22
46347;BME280;32057;47.830;19.046;2022-10-16T08:17:25;101037.69;;;15.02;79.27
46347;BME280;32057;47.830;19.046;2022-10-16T08:27:17;101041.44;;;15.25;77.25
46347;BME280;32057;47.830;19.046;2022-10-16T08:33:58;101052.97;;;15.37;76.45
46347;BME280;32057;47.830;19.046;2022-10-16T08:36:54;101059.19;;;15.45;75.76
46347;BME280;32057;47.830;19.046;2022-10-16T08:39:42;101059.25;;;15.51;77.40
46347;BME280;32057;47.830;19.046;2022-10-16T08:42:39;101057.59;;;15.59;76.72
46347;BME280;32057;47.830;19.046;2022-10-16T08:50:27;101056.91;;;15.72;73.60
46347;BME280;32057;47.830;19.046;2022-10-16T08:52:54;101063.81;;;15.69;72.93
46347;BME280;32057;47.830;19.046;2022-10-16T08:55:42;101058.56;;;15.66;73.18
46347;BME280;32057;47.830;19.046;2022-10-16T08:58:15;101051.59;;;15.71;73.77
46347;BME280;32057;47.830;19.046;2022-10-16T09:00:44;101056.03;;;15.73;75.17
46347;BME280;32057;47.830;19.046;2022-10-16T09:05:57;101055.41;;;15.96;77.67
46347;BME280;32057;47.830;19.046;2022-10-16T09:08:30;101052.75;;;15.93;74.45
46347;BME280;32057;47.830;19.046;2022-10-16T09:11:13;101048.50;;;16.06;75.22
46347;BME280;32057;47.830;19.046;2022-10-16T09:16:45;101052.00;;;16.06;74.06
46347;BME280;32057;47.830;19.046;2022-10-16T09:19:25;101054.72;;;16.17;74.43
46347;BME280;32057;47.830;19.046;2022-10-16T09:21:56;101055.53;;;16.10;72.29
46347;BME280;32057;47.830;19.046;2022-10-16T09:24:24;101064.41;;;16.23;72.24
46347;BME280;32057;47.830;19.046;2022-10-16T09:26:50;101067.13;;;16.32;73.61
46347;BME280;32057;47.830;19.046;2022-10-16T09:29:17;101061.91;;;16.41;74.00
46347;BME280;32057;47.830;19.046;2022-10-16T09:31:45;101078.63;;;16.48;73.67
46347;BME280;32057;47.830;19.046;2022-10-16T09:34:24;101081.28;;;16.52;72.74
46347;BME280;32057;47.830;19.046;2022-10-16T09:36:56;101074.38;;;16.64;73.83
46347;BME280;32057;47.830;19.046;2022-10-16T09:39:22;101085.78;;;16.69;72.18
46347;BME280;32057;47.830;19.046;2022-10-16T09:41:48;101074.44;;;16.75;70.46
46347;BME280;32057;47.830;19.046;2022-10-16T09:46:43;101076.34;;;16.91;73.57
46347;BME280;32057;47.830;19.046;2022-10-16T09:49:19;101079.81;;;16.84;72.14
46347;BME280;32057;47.830;19.046;2022-10-16T09:51:45;101077.16;;;16.82;72.17
46347;BME280;32057;47.830;19.046;2022-10-16T09:54:19;101077.19;;;16.84;70.51
46347;BME280;32057;47.830;19.046;2022-10-16T09:56:46;101074.59;;;16.90;72.88
46347;BME280;32057;47.830;19.046;2022-10-16T09:59:19;101074.63;;;16.98;72.09
46347;BME280;32057;47.830;19.046;2022-10-16T10:01:53;101072.00;;;17.01;73.17
46347;BME280;32057;47.830;19.046;2022-10-16T10:04:19;101059.75;;;17.03;71.79
46347;BME280;32057;47.830;19.046;2022-10-16T10:06:52;101064.19;;;17.13;72.06
46347;BME280;32057;47.830;19.046;2022-10-16T10:09:27;101065.94;;;17.08;67.61
46347;BME280;32057;47.830;19.046;2022-10-16T10:11:59;101066.78;;;17.07;69.40
46347;BME280;32057;47.830;19.046;2022-10-16T10:14:37;101058.06;;;17.09;68.83
46347;BME280;32057;47.830;19.046;2022-10-16T10:24:59;101073.94;;;17.37;75.07
46347;BME280;32057;47.830;19.046;2022-10-16T10:36:09;101058.22;;;17.48;73.58
46347;BME280;32057;47.830;19.046;2022-10-16T10:38:51;101059.09;;;17.53;71.94
46347;BME280;32057;47.830;19.046;2022-10-16T10:41:27;101059.09;;;17.53;66.70
46347;BME280;32057;47.830;19.046;2022-10-16T10:44:03;101058.25;;;17.62;69.64
46347;BME280;32057;47.830;19.046;2022-10-16T10:46:41;101054.78;;;17.67;72.92
46347;BME280;32057;47.830;19.046;2022-10-16T11:05:44;101042.44;;;17.54;68.13
46347;BME280;32057;47.830;19.046;2022-10-16T11:08:17;101042.47;;;17.63;71.38
46347;BME280;32057;47.830;19.046;2022-10-16T11:10:53;101037.19;;;17.65;70.38
46347;BME280;32057;47.830;19.046;2022-10-16T11:16:00;101021.47;;;17.91;71.62
46347;BME280;32057;47.830;19.046;2022-10-16T11:18:42;101017.13;;;18.05;68.72
46347;BME280;32057;47.830;19.046;2022-10-16T11:21:12;101010.97;;;18.19;70.72
46347;BME280;32057;47.830;19.046;2022-10-16T11:23:51;101013.63;;;18.22;65.41
46347;BME280;32057;47.830;19.046;2022-10-16T11:26:26;101018.00;;;18.20;66.34
46347;BME280;32057;47.830;19.046;2022-10-16T11:28:54;101018.00;;;18.09;66.39
46347;BME280;32057;47.830;19.046;2022-10-16T11:31:25;101028.53;;;18.09;66.42
46347;BME280;32057;47.830;19.046;2022-10-16T11:36:55;101037.31;;;18.13;65.07
46347;BME280;32057;47.830;19.046;2022-10-16T11:39:23;101032.94;;;18.22;65.25
46347;BME280;32057;47.830;19.046;2022-10-16T11:41:53;101025.91;;;18.44;66.09
46347;BME280;32057;47.830;19.046;2022-10-16T11:44:48;101012.72;;;18.47;64.01
46347;BME280;32057;47.830;19.046;2022-10-16T11:47:41;101011.81;;;18.55;65.05
46347;BME280;32057;47.830;19.046;2022-10-16T11:56:20;101005.69;;;18.62;67.00
46347;BME280;32057;47.830;19.046;2022-10-16T11:58:54;101003.91;;;18.65;69.03
46347;BME280;32057;47.830;19.046;2022-10-16T12:01:28;101008.34;;;18.49;62.61
46347;BME280;32057;47.830;19.046;2022-10-16T12:07:03;101009.22;;;18.39;63.34
46347;BME280;32057;47.830;19.046;2022-10-16T12:09:32;101010.06;;;18.43;63.43
46347;BME280;32057;47.830;19.046;2022-10-16T12:12:00;101010.97;;;18.56;65.74
46347;BME280;32057;47.830;19.046;2022-10-16T12:14:37;101009.16;;;18.78;66.96
46347;BME280;32057;47.830;19.046;2022-10-16T12:17:22;101007.28;;;19.18;68.11
46347;BME280;32057;47.830;19.046;2022-10-16T12:20:00;101002.00;;;19.18;63.32
46347;BME280;32057;47.830;19.046;2022-10-16T12:22:29;100997.59;;;19.20;62.62
46347;BME280;32057;47.830;19.046;2022-10-16T12:24:56;101000.22;;;19.19;62.00
46347;BME280;32057;47.830;19.046;2022-10-16T12:27:30;101003.75;;;19.21;63.89
46347;BME280;32057;47.830;19.046;2022-10-16T12:30:02;101000.28;;;19.17;64.90
46347;BME280;32057;47.830;19.046;2022-10-16T12:32:38;101004.66;;;19.09;63.74
46347;BME280;32057;47.830;19.046;2022-10-16T12:35:06;101000.25;;;19.11;62.63
46347;BME280;32057;47.830;19.046;2022-10-16T12:37:42;101003.81;;;19.04;59.94
46347;BME280;32057;47.830;19.046;2022-10-16T12:40:28;101003.81;;;19.10;63.26
46347;BME280;32057;47.830;19.046;2022-10-16T12:42:55;101004.69;;;19.15;64.80
46347;BME280;32057;47.830;19.046;2022-10-16T12:45:29;100999.41;;;19.15;60.46
46347;BME280;32057;47.830;19.046;2022-10-16T12:47:57;100991.44;;;19.21;62.21
46347;BME280;32057;47.830;19.046;2022-10-16T12:50:38;100996.66;;;19.32;65.24
46347;BME280;32057;47.830;19.046;2022-10-16T12:53:22;100997.53;;;19.33;60.81
46347;BME280;32057;47.830;19.046;2022-10-16T12:56:11;101004.59;;;19.35;62.46
46347;BME280;32057;47.830;19.046;2022-10-16T12:59:02;101007.19;;;19.38;58.29
46347;BME280;32057;47.830;19.046;2022-10-16T13:04:25;101014.28;;;19.32;63.61
46347;BME280;32057;47.830;19.046;2022-10-16T13:07:00;101020.44;;;19.24;58.49
46347;BME280;32057;47.830;19.046;2022-10-16T13:15:07;101023.06;;;19.29;58.99
46347;BME280;32057;47.830;19.046;2022-10-16T13:23:20;101018.66;;;19.33;60.74
46347;BME280;32057;47.830;19.046;2022-10-16T13:28:32;101017.81;;;19.27;59.54
46347;BME280;32057;47.830;19.046;2022-10-16T13:30:59;101006.38;;;19.25;59.30
46347;BME280;32057;47.830;19.046;2022-10-16T13:33:37;101011.66;;;19.22;59.95
46347;BME280;32057;47.830;19.046;2022-10-16T13:36:04;101007.28;;;19.21;61.36
46347;BME280;32057;47.830;19.046;2022-10-16T13:38:34;101009.94;;;19.15;58.72
46347;BME280;32057;47.830;19.046;2022-10-16T13:46:11;101022.28;;;19.04;59.39
46347;BME280;32057;47.830;19.046;2022-10-16T13:48:37;101010.00;;;18.98;60.24
46347;BME280;32057;47.830;19.046;2022-10-16T13:51:04;101014.41;;;18.98;59.24
46347;BME280;32057;47.830;19.046;2022-10-16T13:53:32;101017.03;;;18.95;60.50
46347;BME280;32057;47.830;19.046;2022-10-16T13:55:58;101024.97;;;18.90;60.95
46347;BME280;32057;47.830;19.046;2022-10-16T13:58:25;101018.81;;;18.86;60.13
46347;BME280;32057;47.830;19.046;2022-10-16T14:00:59;101033.75;;;18.90;59.53
46347;BME280;32057;47.830;19.046;2022-10-16T14:03:26;101025.84;;;18.84;59.49
46347;BME280;32057;47.830;19.046;2022-10-16T14:05:58;101025.88;;;18.81;59.53
46347;BME280;32057;47.830;19.046;2022-10-16T14:08:25;101030.28;;;18.79;59.06
46347;BME280;32057;47.830;19.046;2022-10-16T14:10:57;101024.97;;;18.73;61.87
46347;BME280;32057;47.830;19.046;2022-10-16T14:13:34;101022.34;;;18.67;60.50
46347;BME280;32057;47.830;19.046;2022-10-16T14:16:06;101018.81;;;18.65;59.37
46347;BME280;32057;47.830;19.046;2022-10-16T14:18:33;101025.03;;;18.59;60.46
46347;BME280;32057;47.830;19.046;2022-10-16T14:21:04;101025.00;;;18.61;58.92
46347;BME280;32057;47.830;19.046;2022-10-16T14:23:36;101021.47;;;18.59;60.39
46347;BME280;32057;47.830;19.046;2022-10-16T14:28:35;101022.38;;;18.55;60.47
46347;BME280;32057;47.830;19.046;2022-10-16T14:31:02;101023.22;;;18.55;59.69
46347;BME280;32057;47.830;19.046;2022-10-16T14:36:23;101024.13;;;18.46;61.05
46347;BME280;32057;47.830;19.046;2022-10-16T14:38:56;101027.66;;;18.42;61.24
46347;BME280;32057;47.830;19.046;2022-10-16T14:41:23;101030.28;;;18.36;61.35
46347;BME280;32057;47.830;19.046;2022-10-16T14:43:56;101031.16;;;18.29;63.13
46347;BME280;32057;47.830;19.046;2022-10-16T14:46:34;101036.44;;;18.20;66.75
46347;BME280;32057;47.830;19.046;2022-10-16T14:49:15;101040.81;;;18.13;64.46
46347;BME280;32057;47.830;19.046;2022-10-16T14:51:42;101044.31;;;18.09;63.72
46347;BME280;32057;47.830;19.046;2022-10-16T14:54:10;101048.72;;;18.08;63.02
46347;BME280;32057;47.830;19.046;2022-10-16T14:56:45;101039.97;;;18.03;65.08
46347;BME280;32057;47.830;19.046;2022-10-16T14:59:38;101039.91;;;17.97;65.08
46347;BME280;32057;47.830;19.046;2022-10-16T15:02:25;101036.44;;;17.92;66.03
46347;BME280;32057;47.830;19.046;2022-10-16T15:04:52;101038.16;;;17.87;66.52
46347;BME280;32057;47.830;19.046;2022-10-16T15:07:18;101050.38;;;17.77;68.14
46347;BME280;32057;47.830;19.046;2022-10-16T15:09:44;101037.22;;;17.71;69.04